sensor_id;sensor_type;location;lat;lon;timestamp;temperature;humidity
43884;DHT22;29544;52.018;5.810;2023-03-01T00:01:04;18.30;37.90
43884;DHT22;29544;52.018;5.810;2023-03-01T00:03:31;18.20;37.90
43884;DHT22;29544;52.018;5.810;2023-03-01T00:05:57;18.20;38.10
43884;DHT22;29544;52.018;5.810;2023-03-01T00:08:23;18.10;37.90
43884;DHT22;29544;52.018;5.810;2023-03-01T00:10:48;18.10;38.10
43884;DHT22;29544;52.018;5.810;2023-03-01T00:13:14;18.00;38.10
43884;DHT22;29544;52.018;5.810;2023-03-01T00:15:40;18.00;38.10
43884;DHT22;29544;52.018;5.810;2023-03-01T00:18:09;17.90;38.10
43884;DHT22;29544;52.018;5.810;2023-03-01T00:20:35;17.90;38.10
43884;DHT22;29544;52.018;5.810;2023-03-01T00:23:00;17.90;38.10
43884;DHT22;29544;52.018;5.810;2023-03-01T00:25:26;17.80;38.20
43884;DHT22;29544;52.018;5.810;2023-03-01T00:27:51;17.70;38.10
43884;DHT22;29544;52.018;5.810;2023-03-01T00:30:17;17.70;38.20
43884;DHT22;29544;52.018;5.810;2023-03-01T00:32:42;17.70;38.30
43884;DHT22;29544;52.018;5.810;2023-03-01T00:35:08;17.60;38.20
43884;DHT22;29544;52.018;5.810;2023-03-01T00:37:33;17.50;38.20
43884;DHT22;29544;52.018;5.810;2023-03-01T00:39:59;17.50;38.20
43884;DHT22;29544;52.018;5.810;2023-03-01T00:42:24;17.40;38.20
43884;DHT22;29544;52.018;5.810;2023-03-01T00:44:50;17.40;38.20
43884;DHT22;29544;52.018;5.810;2023-03-01T00:47:15;17.40;38.30
43884;DHT22;29544;52.018;5.810;2023-03-01T00:49:41;17.40;38.30
43884;DHT22;29544;52.018;5.810;2023-03-01T00:52:06;17.30;38.30
43884;DHT22;29544;52.018;5.810;2023-03-01T00:54:32;17.30;38.30
43884;DHT22;29544;52.018;5.810;2023-03-01T00:56:58;17.20;38.30
43884;DHT22;29544;52.018;5.810;2023-03-01T00:59:23;17.20;38.30
43884;DHT22;29544;52.018;5.810;2023-03-01T01:01:49;17.20;38.30
43884;DHT22;29544;52.018;5.810;2023-03-01T01:04:14;17.10;38.40
43884;DHT22;29544;52.018;5.810;2023-03-01T01:06:45;17.10;38.40
43884;DHT22;29544;52.018;5.810;2023-03-01T01:09:14;17.00;38.30
43884;DHT22;29544;52.018;5.810;2023-03-01T01:11:47;17.00;38.40
43884;DHT22;29544;52.018;5.810;2023-03-01T01:14:13;17.00;38.40
43884;DHT22;29544;52.018;5.810;2023-03-01T01:16:38;17.00;38.40
43884;DHT22;29544;52.018;5.810;2023-03-01T01:19:05;16.90;38.40
43884;DHT22;29544;52.018;5.810;2023-03-01T01:21:31;16.90;38.40
43884;DHT22;29544;52.018;5.810;2023-03-01T01:23:56;16.80;38.40
43884;DHT22;29544;52.018;5.810;2023-03-01T01:26:28;16.80;38.40
43884;DHT22;29544;52.018;5.810;2023-03-01T01:28:54;16.80;38.50
43884;DHT22;29544;52.018;5.810;2023-03-01T01:31:20;16.80;39.10
43884;DHT22;29544;52.018;5.810;2023-03-01T01:33:46;16.70;38.40
43884;DHT22;29544;52.018;5.810;2023-03-01T01:36:12;16.60;38.50
43884;DHT22;29544;52.018;5.810;2023-03-01T01:38:38;16.60;38.50
43884;DHT22;29544;52.018;5.810;2023-03-01T01:41:05;16.60;38.50
43884;DHT22;29544;52.018;5.810;2023-03-01T01:43:38;16.50;38.40
43884;DHT22;29544;52.018;5.810;2023-03-01T01:48:54;16.50;38.50
43884;DHT22;29544;52.018;5.810;2023-03-01T01:51:27;16.50;38.60
43884;DHT22;29544;52.018;5.810;2023-03-01T01:53:58;16.40;38.50
43884;DHT22;29544;52.018;5.810;2023-03-01T01:56:26;16.40;38.50
43884;DHT22;29544;52.018;5.810;2023-03-01T01:58:54;16.40;38.50
43884;DHT22;29544;52.018;5.810;2023-03-01T02:01:20;16.30;38.50
43884;DHT22;29544;52.018;5.810;2023-03-01T02:03:46;16.30;38.50
43884;DHT22;29544;52.018;5.810;2023-03-01T02:08:40;16.20;38.50
43884;DHT22;29544;52.018;5.810;2023-03-01T02:11:08;16.20;38.60
43884;DHT22;29544;52.018;5.810;2023-03-01T02:13:34;16.20;38.60
43884;DHT22;29544;52.018;5.810;2023-03-01T02:16:08;16.20;38.60
43884;DHT22;29544;52.018;5.810;2023-03-01T02:18:34;16.10;38.50
43884;DHT22;29544;52.018;5.810;2023-03-01T02:21:08;16.10;38.60
43884;DHT22;29544;52.018;5.810;2023-03-01T02:23:38;16.10;38.60
43884;DHT22;29544;52.018;5.810;2023-03-01T02:26:09;16.00;38.50
43884;DHT22;29544;52.018;5.810;2023-03-01T02:28:40;16.00;38.60
43884;DHT22;29544;52.018;5.810;2023-03-01T02:31:09;16.00;38.60
43884;DHT22;29544;52.018;5.810;2023-03-01T02:33:55;16.00;38.70
43884;DHT22;29544;52.018;5.810;2023-03-01T02:36:31;15.90;38.60
43884;DHT22;29544;52.018;5.810;2023-03-01T02:38:59;15.90;38.60
43884;DHT22;29544;52.018;5.810;2023-03-01T02:41:28;15.80;38.60
43884;DHT22;29544;52.018;5.810;2023-03-01T02:43:57;15.80;38.60
43884;DHT22;29544;52.018;5.810;2023-03-01T02:46:25;15.80;38.60
43884;DHT22;29544;52.018;5.810;2023-03-01T02:48:54;15.80;38.60
43884;DHT22;29544;52.018;5.810;2023-03-01T02:54:25;15.70;38.80
43884;DHT22;29544;52.018;5.810;2023-03-01T02:56:53;15.70;38.70
43884;DHT22;29544;52.018;5.810;2023-03-01T02:59:22;15.70;38.80
43884;DHT22;29544;52.018;5.810;2023-03-01T03:01:49;15.60;38.60
43884;DHT22;29544;52.018;5.810;2023-03-01T03:04:17;15.60;38.60
43884;DHT22;29544;52.018;5.810;2023-03-01T03:06:46;15.60;38.70
43884;DHT22;29544;52.018;5.810;2023-03-01T03:09:13;15.60;38.60
43884;DHT22;29544;52.018;5.810;2023-03-01T03:11:39;15.50;38.70
43884;DHT22;29544;52.018;5.810;2023-03-01T03:14:07;15.50;38.80
43884;DHT22;29544;52.018;5.810;2023-03-01T03:16:48;15.50;38.70
43884;DHT22;29544;52.018;5.810;2023-03-01T03:19:15;15.50;38.70
43884;DHT22;29544;52.018;5.810;2023-03-01T03:21:41;15.40;38.70
43884;DHT22;29544;52.018;5.810;2023-03-01T03:24:07;15.40;38.80
43884;DHT22;29544;52.018;5.810;2023-03-01T03:26:33;15.40;38.80
43884;DHT22;29544;52.018;5.810;2023-03-01T03:28:58;15.40;38.80
43884;DHT22;29544;52.018;5.810;2023-03-01T03:31:24;15.40;38.80
43884;DHT22;29544;52.018;5.810;2023-03-01T03:33:50;15.30;38.80
43884;DHT22;29544;52.018;5.810;2023-03-01T03:36:23;15.30;38.80
43884;DHT22;29544;52.018;5.810;2023-03-01T03:38:49;15.30;38.80
43884;DHT22;29544;52.018;5.810;2023-03-01T03:41:15;15.20;38.80
43884;DHT22;29544;52.018;5.810;2023-03-01T03:43:41;15.20;38.80
43884;DHT22;29544;52.018;5.810;2023-03-01T03:46:09;15.20;38.80
43884;DHT22;29544;52.018;5.810;2023-03-01T03:48:40;15.20;38.80
43884;DHT22;29544;52.018;5.810;2023-03-01T03:51:10;15.10;38.80
43884;DHT22;29544;52.018;5.810;2023-03-01T03:53:35;15.10;39.40
43884;DHT22;29544;52.018;5.810;2023-03-01T03:56:01;15.10;38.80
43884;DHT22;29544;52.018;5.810;2023-03-01T03:58:26;15.10;38.90
43884;DHT22;29544;52.018;5.810;2023-03-01T04:00:55;15.00;38.90
43884;DHT22;29544;52.018;5.810;2023-03-01T04:03:26;15.10;38.80
43884;DHT22;29544;52.018;5.810;2023-03-01T04:05:52;15.00;38.90
43884;DHT22;29544;52.018;5.810;2023-03-01T04:08:22;15.00;38.80
43884;DHT22;29544;52.018;5.810;2023-03-01T04:10:50;15.00;38.80
43884;DHT22;29544;52.018;5.810;2023-03-01T04:13:19;14.90;38.80
43884;DHT22;29544;52.018;5.810;2023-03-01T04:15:50;14.90;38.90
43884;DHT22;29544;52.018;5.810;2023-03-01T04:18:18;14.90;39.00
43884;DHT22;29544;52.018;5.810;2023-03-01T04:20:44;14.90;38.80
43884;DHT22;29544;52.018;5.810;2023-03-01T04:23:13;14.90;38.80
43884;DHT22;29544;52.018;5.810;2023-03-01T04:25:51;14.90;38.80
43884;DHT22;29544;52.018;5.810;2023-03-01T04:28:23;14.80;38.80
43884;DHT22;29544;52.018;5.810;2023-03-01T04:30:54;14.80;38.80
43884;DHT22;29544;52.018;5.810;2023-03-01T04:33:20;14.80;38.80
43884;DHT22;29544;52.018;5.810;2023-03-01T04:35:48;14.80;38.80
43884;DHT22;29544;52.018;5.810;2023-03-01T04:38:17;14.70;38.80
43884;DHT22;29544;52.018;5.810;2023-03-01T04:40:43;14.70;38.80
43884;DHT22;29544;52.018;5.810;2023-03-01T04:43:10;14.70;38.80
43884;DHT22;29544;52.018;5.810;2023-03-01T04:45:35;14.70;38.90
43884;DHT22;29544;52.018;5.810;2023-03-01T04:48:02;14.60;38.90
43884;DHT22;29544;52.018;5.810;2023-03-01T04:50:27;14.60;38.80
43884;DHT22;29544;52.018;5.810;2023-03-01T04:52:53;14.60;38.80
43884;DHT22;29544;52.018;5.810;2023-03-01T04:55:19;14.60;38.80
43884;DHT22;29544;52.018;5.810;2023-03-01T04:57:45;14.60;38.80
43884;DHT22;29544;52.018;5.810;2023-03-01T05:00:12;14.50;38.80
43884;DHT22;29544;52.018;5.810;2023-03-01T05:02:47;14.50;38.80
43884;DHT22;29544;52.018;5.810;2023-03-01T05:05:14;14.50;38.90
43884;DHT22;29544;52.018;5.810;2023-03-01T05:07:40;14.50;38.90
43884;DHT22;29544;52.018;5.810;2023-03-01T05:10:06;14.50;38.90
43884;DHT22;29544;52.018;5.810;2023-03-01T05:12:31;14.50;38.90
43884;DHT22;29544;52.018;5.810;2023-03-01T05:14:57;14.40;38.90
43884;DHT22;29544;52.018;5.810;2023-03-01T05:17:23;14.40;38.90
43884;DHT22;29544;52.018;5.810;2023-03-01T05:19:49;14.40;39.00
43884;DHT22;29544;52.018;5.810;2023-03-01T05:22:15;14.40;39.00
43884;DHT22;29544;52.018;5.810;2023-03-01T05:24:40;14.30;38.90
43884;DHT22;29544;52.018;5.810;2023-03-01T05:27:07;14.30;38.90
43884;DHT22;29544;52.018;5.810;2023-03-01T05:29:32;14.30;38.90
43884;DHT22;29544;52.018;5.810;2023-03-01T05:32:00;14.30;39.00
43884;DHT22;29544;52.018;5.810;2023-03-01T05:34:27;14.30;39.00
43884;DHT22;29544;52.018;5.810;2023-03-01T05:36:53;14.30;39.00
43884;DHT22;29544;52.018;5.810;2023-03-01T05:39:23;14.20;39.00
43884;DHT22;29544;52.018;5.810;2023-03-01T05:41:56;14.20;39.00
43884;DHT22;29544;52.018;5.810;2023-03-01T05:44:23;14.20;38.90
43884;DHT22;29544;52.018;5.810;2023-03-01T05:46:49;14.20;39.00
43884;DHT22;29544;52.018;5.810;2023-03-01T05:49:15;14.20;39.10
43884;DHT22;29544;52.018;5.810;2023-03-01T05:51:42;14.20;39.00
43884;DHT22;29544;52.018;5.810;2023-03-01T05:54:09;14.10;38.90
43884;DHT22;29544;52.018;5.810;2023-03-01T05:56:36;14.10;39.00
43884;DHT22;29544;52.018;5.810;2023-03-01T05:59:03;14.10;38.90
43884;DHT22;29544;52.018;5.810;2023-03-01T06:01:28;14.10;38.90
43884;DHT22;29544;52.018;5.810;2023-03-01T06:03:54;14.10;39.00
43884;DHT22;29544;52.018;5.810;2023-03-01T06:06:21;14.10;39.00
43884;DHT22;29544;52.018;5.810;2023-03-01T06:08:46;14.00;38.90
43884;DHT22;29544;52.018;5.810;2023-03-01T06:11:12;14.00;39.00
43884;DHT22;29544;52.018;5.810;2023-03-01T06:13:37;14.00;39.00
43884;DHT22;29544;52.018;5.810;2023-03-01T06:16:07;14.00;39.00
43884;DHT22;29544;52.018;5.810;2023-03-01T06:18:33;14.00;39.00
43884;DHT22;29544;52.018;5.810;2023-03-01T06:20:58;14.00;39.00
43884;DHT22;29544;52.018;5.810;2023-03-01T06:23:24;13.90;39.00
43884;DHT22;29544;52.018;5.810;2023-03-01T06:25:50;13.90;39.00
43884;DHT22;29544;52.018;5.810;2023-03-01T06:28:15;13.90;39.00
43884;DHT22;29544;52.018;5.810;2023-03-01T06:30:41;13.90;39.10
43884;DHT22;29544;52.018;5.810;2023-03-01T06:33:06;13.90;39.00
43884;DHT22;29544;52.018;5.810;2023-03-01T06:35:32;13.80;39.00
43884;DHT22;29544;52.018;5.810;2023-03-01T06:37:59;13.80;39.00
43884;DHT22;29544;52.018;5.810;2023-03-01T06:40:25;13.80;39.30
43884;DHT22;29544;52.018;5.810;2023-03-01T06:42:51;13.80;39.10
43884;DHT22;29544;52.018;5.810;2023-03-01T06:45:17;13.80;39.20
43884;DHT22;29544;52.018;5.810;2023-03-01T06:47:43;13.70;39.00
43884;DHT22;29544;52.018;5.810;2023-03-01T06:50:09;13.70;39.10
43884;DHT22;29544;52.018;5.810;2023-03-01T06:52:35;13.70;39.20
43884;DHT22;29544;52.018;5.810;2023-03-01T06:55:01;13.70;39.30
43884;DHT22;29544;52.018;5.810;2023-03-01T06:57:27;13.60;39.20
43884;DHT22;29544;52.018;5.810;2023-03-01T06:59:52;13.60;39.00
43884;DHT22;29544;52.018;5.810;2023-03-01T07:02:18;13.60;38.80
43884;DHT22;29544;52.018;5.810;2023-03-01T07:04:44;13.60;38.90
43884;DHT22;29544;52.018;5.810;2023-03-01T07:07:09;13.60;39.00
43884;DHT22;29544;52.018;5.810;2023-03-01T07:09:35;13.60;39.00
43884;DHT22;29544;52.018;5.810;2023-03-01T07:12:01;13.60;39.10
43884;DHT22;29544;52.018;5.810;2023-03-01T07:14:27;13.70;39.20
43884;DHT22;29544;52.018;5.810;2023-03-01T07:16:53;13.70;39.20
43884;DHT22;29544;52.018;5.810;2023-03-01T07:19:19;13.70;39.20
43884;DHT22;29544;52.018;5.810;2023-03-01T07:21:45;13.80;39.10
43884;DHT22;29544;52.018;5.810;2023-03-01T07:24:11;13.80;39.00
43884;DHT22;29544;52.018;5.810;2023-03-01T07:26:37;13.90;39.00
43884;DHT22;29544;52.018;5.810;2023-03-01T07:29:04;13.90;38.90
43884;DHT22;29544;52.018;5.810;2023-03-01T07:31:30;14.00;38.90
43884;DHT22;29544;52.018;5.810;2023-03-01T07:33:56;14.00;38.80
43884;DHT22;29544;52.018;5.810;2023-03-01T07:36:23;14.10;38.80
43884;DHT22;29544;52.018;5.810;2023-03-01T07:38:49;14.20;38.90
43884;DHT22;29544;52.018;5.810;2023-03-01T07:41:15;14.20;38.60
43884;DHT22;29544;52.018;5.810;2023-03-01T07:43:40;14.30;38.60
43884;DHT22;29544;52.018;5.810;2023-03-01T07:46:06;14.30;38.50
43884;DHT22;29544;52.018;5.810;2023-03-01T07:48:33;14.40;38.60
43884;DHT22;29544;52.018;5.810;2023-03-01T07:51:03;14.40;38.60
43884;DHT22;29544;52.018;5.810;2023-03-01T07:53:29;14.40;38.50
43884;DHT22;29544;52.018;5.810;2023-03-01T07:56:10;14.40;38.40
43884;DHT22;29544;52.018;5.810;2023-03-01T07:58:39;14.40;38.30
43884;DHT22;29544;52.018;5.810;2023-03-01T08:01:06;14.40;38.20
43884;DHT22;29544;52.018;5.810;2023-03-01T08:03:33;14.40;38.10
43884;DHT22;29544;52.018;5.810;2023-03-01T08:06:03;14.40;38.10
43884;DHT22;29544;52.018;5.810;2023-03-01T08:08:29;14.40;38.10
43884;DHT22;29544;52.018;5.810;2023-03-01T08:10:59;14.40;38.10
43884;DHT22;29544;52.018;5.810;2023-03-01T08:13:25;14.40;38.10
43884;DHT22;29544;52.018;5.810;2023-03-01T08:15:51;14.40;38.10
43884;DHT22;29544;52.018;5.810;2023-03-01T08:18:19;14.40;38.20
43884;DHT22;29544;52.018;5.810;2023-03-01T08:20:45;14.30;38.10
43884;DHT22;29544;52.018;5.810;2023-03-01T08:23:11;14.30;38.20
43884;DHT22;29544;52.018;5.810;2023-03-01T08:25:37;14.30;38.20
43884;DHT22;29544;52.018;5.810;2023-03-01T08:28:02;14.30;38.30
43884;DHT22;29544;52.018;5.810;2023-03-01T08:30:28;14.30;38.30
43884;DHT22;29544;52.018;5.810;2023-03-01T08:32:54;14.20;38.40
43884;DHT22;29544;52.018;5.810;2023-03-01T08:35:19;14.20;38.40
43884;DHT22;29544;52.018;5.810;2023-03-01T08:37:45;14.20;38.50
43884;DHT22;29544;52.018;5.810;2023-03-01T08:40:11;14.20;38.50
43884;DHT22;29544;52.018;5.810;2023-03-01T08:42:39;14.10;38.40
43884;DHT22;29544;52.018;5.810;2023-03-01T08:45:06;14.10;38.40
43884;DHT22;29544;52.018;5.810;2023-03-01T08:47:32;14.10;38.50
43884;DHT22;29544;52.018;5.810;2023-03-01T08:49:59;14.10;38.60
43884;DHT22;29544;52.018;5.810;2023-03-01T08:52:24;14.10;38.60
43884;DHT22;29544;52.018;5.810;2023-03-01T08:54:51;14.00;38.70
43884;DHT22;29544;52.018;5.810;2023-03-01T08:57:16;14.00;38.70
43884;DHT22;29544;52.018;5.810;2023-03-01T08:59:42;14.00;38.80
43884;DHT22;29544;52.018;5.810;2023-03-01T09:02:16;14.00;38.80
43884;DHT22;29544;52.018;5.810;2023-03-01T09:04:42;14.00;38.90
43884;DHT22;29544;52.018;5.810;2023-03-01T09:07:08;14.00;38.90
43884;DHT22;29544;52.018;5.810;2023-03-01T09:09:34;14.00;39.00
43884;DHT22;29544;52.018;5.810;2023-03-01T09:12:00;14.00;39.00
43884;DHT22;29544;52.018;5.810;2023-03-01T09:14:26;14.00;39.70
43884;DHT22;29544;52.018;5.810;2023-03-01T09:16:52;14.00;39.10
43884;DHT22;29544;52.018;5.810;2023-03-01T09:19:17;14.10;39.20
43884;DHT22;29544;52.018;5.810;2023-03-01T09:21:43;14.10;39.20
43884;DHT22;29544;52.018;5.810;2023-03-01T09:24:19;14.20;39.40
43884;DHT22;29544;52.018;5.810;2023-03-01T09:26:45;14.30;39.40
43884;DHT22;29544;52.018;5.810;2023-03-01T09:29:12;14.30;39.40
43884;DHT22;29544;52.018;5.810;2023-03-01T09:31:38;14.50;39.40
43884;DHT22;29544;52.018;5.810;2023-03-01T09:34:05;14.60;39.40
43884;DHT22;29544;52.018;5.810;2023-03-01T09:36:31;14.60;39.20
43884;DHT22;29544;52.018;5.810;2023-03-01T09:38:57;14.80;39.10
43884;DHT22;29544;52.018;5.810;2023-03-01T09:41:44;14.80;39.00
43884;DHT22;29544;52.018;5.810;2023-03-01T09:47:22;15.00;38.90
43884;DHT22;29544;52.018;5.810;2023-03-01T09:52:50;15.00;38.80
43884;DHT22;29544;52.018;5.810;2023-03-01T10:03:02;15.20;39.20
43884;DHT22;29544;52.018;5.810;2023-03-01T10:05:36;15.20;38.50
43884;DHT22;29544;52.018;5.810;2023-03-01T10:10:42;15.20;38.50
43884;DHT22;29544;52.018;5.810;2023-03-01T10:13:20;15.20;38.50
43884;DHT22;29544;52.018;5.810;2023-03-01T10:16:12;15.30;38.50
43884;DHT22;29544;52.018;5.810;2023-03-01T10:18:40;15.30;38.60
43884;DHT22;29544;52.018;5.810;2023-03-01T10:21:18;15.30;38.60
43884;DHT22;29544;52.018;5.810;2023-03-01T10:23:44;15.30;38.60
43884;DHT22;29544;52.018;5.810;2023-03-01T10:28:59;15.40;39.00
43884;DHT22;29544;52.018;5.810;2023-03-01T10:31:53;15.40;39.10
43884;DHT22;29544;52.018;5.810;2023-03-01T10:34:27;15.50;39.20
43884;DHT22;29544;52.018;5.810;2023-03-01T10:37:08;15.50;39.30
43884;DHT22;29544;52.018;5.810;2023-03-01T10:39:34;15.50;39.30
43884;DHT22;29544;52.018;5.810;2023-03-01T10:42:02;15.60;39.40
43884;DHT22;29544;52.018;5.810;2023-03-01T10:44:43;15.60;39.30
43884;DHT22;29544;52.018;5.810;2023-03-01T10:47:21;15.70;39.30
43884;DHT22;29544;52.018;5.810;2023-03-01T10:49:59;15.60;39.20
43884;DHT22;29544;52.018;5.810;2023-03-01T10:52:31;15.70;39.30
43884;DHT22;29544;52.018;5.810;2023-03-01T10:57:39;15.60;39.30
43884;DHT22;29544;52.018;5.810;2023-03-01T11:00:15;15.70;39.30
43884;DHT22;29544;52.018;5.810;2023-03-01T11:02:51;15.70;39.30
43884;DHT22;29544;52.018;5.810;2023-03-01T11:05:26;15.70;39.30
43884;DHT22;29544;52.018;5.810;2023-03-01T11:07:57;15.70;39.30
43884;DHT22;29544;52.018;5.810;2023-03-01T11:12:56;15.70;39.30
43884;DHT22;29544;52.018;5.810;2023-03-01T11:15:30;15.70;39.30
43884;DHT22;29544;52.018;5.810;2023-03-01T11:17:56;15.70;39.30
43884;DHT22;29544;52.018;5.810;2023-03-01T11:20:29;15.80;39.30
43884;DHT22;29544;52.018;5.810;2023-03-01T11:23:03;15.80;39.30
43884;DHT22;29544;52.018;5.810;2023-03-01T11:25:36;15.80;39.30
43884;DHT22;29544;52.018;5.810;2023-03-01T11:28:05;15.80;39.30
43884;DHT22;29544;52.018;5.810;2023-03-01T11:30:39;15.90;39.30
43884;DHT22;29544;52.018;5.810;2023-03-01T11:35:35;15.90;39.20
43884;DHT22;29544;52.018;5.810;2023-03-01T11:38:16;15.90;39.10
43884;DHT22;29544;52.018;5.810;2023-03-01T11:57:00;16.20;39.50
43884;DHT22;29544;52.018;5.810;2023-03-01T12:05:23;16.30;39.40
43884;DHT22;29544;52.018;5.810;2023-03-01T12:08:10;16.30;39.40
43884;DHT22;29544;52.018;5.810;2023-03-01T12:13:45;16.40;39.50
43884;DHT22;29544;52.018;5.810;2023-03-01T12:16:23;16.40;39.50
43884;DHT22;29544;52.018;5.810;2023-03-01T12:24:45;16.50;39.50
43884;DHT22;29544;52.018;5.810;2023-03-01T12:27:36;16.50;39.50
43884;DHT22;29544;52.018;5.810;2023-03-01T12:38:17;16.60;39.40
43884;DHT22;29544;52.018;5.810;2023-03-01T12:43:44;16.70;39.60
43884;DHT22;29544;52.018;5.810;2023-03-01T12:49:18;16.80;39.50
43884;DHT22;29544;52.018;5.810;2023-03-01T12:52:02;16.90;39.60
43884;DHT22;29544;52.018;5.810;2023-03-01T12:54:33;16.90;39.50
43884;DHT22;29544;52.018;5.810;2023-03-01T12:57:18;16.90;39.40
43884;DHT22;29544;52.018;5.810;2023-03-01T13:03:00;17.00;39.60
43884;DHT22;29544;52.018;5.810;2023-03-01T13:08:14;17.10;39.50
43884;DHT22;29544;52.018;5.810;2023-03-01T13:11:04;17.10;39.40
43884;DHT22;29544;52.018;5.810;2023-03-01T13:13:31;17.10;39.30
43884;DHT22;29544;52.018;5.810;2023-03-01T13:15:57;17.10;39.30
43884;DHT22;29544;52.018;5.810;2023-03-01T13:18:43;17.20;39.30
43884;DHT22;29544;52.018;5.810;2023-03-01T13:21:08;17.20;39.30
43884;DHT22;29544;52.018;5.810;2023-03-01T13:23:36;17.20;39.70
43884;DHT22;29544;52.018;5.810;2023-03-01T13:26:04;17.20;39.70
43884;DHT22;29544;52.018;5.810;2023-03-01T13:28:40;17.30;39.80
43884;DHT22;29544;52.018;5.810;2023-03-01T13:31:09;17.20;39.70
43884;DHT22;29544;52.018;5.810;2023-03-01T13:33:54;17.20;39.60
43884;DHT22;29544;52.018;5.810;2023-03-01T13:39:04;17.20;39.40
43884;DHT22;29544;52.018;5.810;2023-03-01T13:47:14;17.20;39.20
43884;DHT22;29544;52.018;5.810;2023-03-01T13:49:50;17.20;39.30
43884;DHT22;29544;52.018;5.810;2023-03-01T13:52:35;17.20;39.20
43884;DHT22;29544;52.018;5.810;2023-03-01T13:55:14;17.20;39.20
43884;DHT22;29544;52.018;5.810;2023-03-01T13:57:47;17.20;39.90
43884;DHT22;29544;52.018;5.810;2023-03-01T14:00:37;17.10;39.20
43884;DHT22;29544;52.018;5.810;2023-03-01T14:03:18;17.10;39.20
43884;DHT22;29544;52.018;5.810;2023-03-01T14:08:26;17.10;39.10
43884;DHT22;29544;52.018;5.810;2023-03-01T14:16:51;17.20;39.20
43884;DHT22;29544;52.018;5.810;2023-03-01T14:19:26;17.10;39.10
43884;DHT22;29544;52.018;5.810;2023-03-01T14:22:18;17.20;39.10
43884;DHT22;29544;52.018;5.810;2023-03-01T14:24:57;17.20;39.10
43884;DHT22;29544;52.018;5.810;2023-03-01T14:27:27;17.20;39.10
43884;DHT22;29544;52.018;5.810;2023-03-01T14:29:56;17.10;39.00
43884;DHT22;29544;52.018;5.810;2023-03-01T14:32:25;17.20;39.10
43884;DHT22;29544;52.018;5.810;2023-03-01T14:34:51;17.10;38.90
43884;DHT22;29544;52.018;5.810;2023-03-01T14:37:26;17.10;39.00
43884;DHT22;29544;52.018;5.810;2023-03-01T14:39:53;17.10;38.90
43884;DHT22;29544;52.018;5.810;2023-03-01T14:42:20;17.10;38.90
43884;DHT22;29544;52.018;5.810;2023-03-01T14:44:49;17.10;38.90
43884;DHT22;29544;52.018;5.810;2023-03-01T14:49:50;17.10;38.80
43884;DHT22;29544;52.018;5.810;2023-03-01T14:52:21;17.10;38.80
43884;DHT22;29544;52.018;5.810;2023-03-01T14:54:51;17.10;38.80
43884;DHT22;29544;52.018;5.810;2023-03-01T14:57:22;17.10;38.90
43884;DHT22;29544;52.018;5.810;2023-03-01T14:59:52;17.20;39.00
43884;DHT22;29544;52.018;5.810;2023-03-01T15:02:22;17.20;38.90
43884;DHT22;29544;52.018;5.810;2023-03-01T15:04:54;17.20;38.90
43884;DHT22;29544;52.018;5.810;2023-03-01T15:07:24;17.20;39.00
43884;DHT22;29544;52.018;5.810;2023-03-01T15:09:51;17.30;39.00
43884;DHT22;29544;52.018;5.810;2023-03-01T15:12:36;17.30;38.80
43884;DHT22;29544;52.018;5.810;2023-03-01T15:15:26;17.30;38.80
43884;DHT22;29544;52.018;5.810;2023-03-01T15:17:58;17.30;38.80
43884;DHT22;29544;52.018;5.810;2023-03-01T15:20:26;17.30;38.80
43884;DHT22;29544;52.018;5.810;2023-03-01T15:22:55;17.30;38.80
43884;DHT22;29544;52.018;5.810;2023-03-01T15:25:24;17.30;38.70
43884;DHT22;29544;52.018;5.810;2023-03-01T15:27:52;17.30;38.70
43884;DHT22;29544;52.018;5.810;2023-03-01T15:30:23;17.30;38.70
43884;DHT22;29544;52.018;5.810;2023-03-01T15:35:51;17.30;38.60
43884;DHT22;29544;52.018;5.810;2023-03-01T15:38:31;17.30;38.60
43884;DHT22;29544;52.018;5.810;2023-03-01T15:41:02;17.40;39.10
43884;DHT22;29544;52.018;5.810;2023-03-01T15:43:46;17.40;39.30
43884;DHT22;29544;52.018;5.810;2023-03-01T15:46:32;17.40;39.30
43884;DHT22;29544;52.018;5.810;2023-03-01T15:49:02;17.40;39.20
43884;DHT22;29544;52.018;5.810;2023-03-01T15:51:33;17.50;39.30
43884;DHT22;29544;52.018;5.810;2023-03-01T15:54:06;17.50;39.20
43884;DHT22;29544;52.018;5.810;2023-03-01T15:56:33;17.50;39.10
43884;DHT22;29544;52.018;5.810;2023-03-01T15:59:00;17.50;39.00
43884;DHT22;29544;52.018;5.810;2023-03-01T16:01:27;17.50;38.90
43884;DHT22;29544;52.018;5.810;2023-03-01T16:03:53;17.40;38.70
43884;DHT22;29544;52.018;5.810;2023-03-01T16:06:19;17.40;38.70
43884;DHT22;29544;52.018;5.810;2023-03-01T16:08:45;17.40;38.60
43884;DHT22;29544;52.018;5.810;2023-03-01T16:11:17;17.40;38.50
43884;DHT22;29544;52.018;5.810;2023-03-01T16:13:44;17.40;38.50
43884;DHT22;29544;52.018;5.810;2023-03-01T16:16:12;17.40;38.40
43884;DHT22;29544;52.018;5.810;2023-03-01T16:18:40;17.40;38.50
43884;DHT22;29544;52.018;5.810;2023-03-01T16:21:06;17.40;38.50
43884;DHT22;29544;52.018;5.810;2023-03-01T16:23:31;17.30;38.30
43884;DHT22;29544;52.018;5.810;2023-03-01T16:26:00;17.30;38.40
43884;DHT22;29544;52.018;5.810;2023-03-01T16:28:26;17.20;38.30
43884;DHT22;29544;52.018;5.810;2023-03-01T16:30:52;17.20;38.30
43884;DHT22;29544;52.018;5.810;2023-03-01T16:33:17;17.20;38.20
43884;DHT22;29544;52.018;5.810;2023-03-01T16:35:43;17.20;38.20
43884;DHT22;29544;52.018;5.810;2023-03-01T16:38:09;17.10;38.30
43884;DHT22;29544;52.018;5.810;2023-03-01T16:40:35;17.10;38.30
43884;DHT22;29544;52.018;5.810;2023-03-01T16:43:01;17.10;38.20
43884;DHT22;29544;52.018;5.810;2023-03-01T16:45:28;17.00;38.10
43884;DHT22;29544;52.018;5.810;2023-03-01T16:47:57;17.00;38.20
43884;DHT22;29544;52.018;5.810;2023-03-01T16:50:23;16.90;38.10
43884;DHT22;29544;52.018;5.810;2023-03-01T16:52:48;16.90;38.10
43884;DHT22;29544;52.018;5.810;2023-03-01T16:55:14;16.90;38.10
43884;DHT22;29544;52.018;5.810;2023-03-01T16:57:40;16.80;38.00
43884;DHT22;29544;52.018;5.810;2023-03-01T17:00:07;16.80;38.10
43884;DHT22;29544;52.018;5.810;2023-03-01T17:02:34;16.70;38.10
43884;DHT22;29544;52.018;5.810;2023-03-01T17:05:00;16.70;38.20
43884;DHT22;29544;52.018;5.810;2023-03-01T17:07:27;16.60;38.20
43884;DHT22;29544;52.018;5.810;2023-03-01T17:09:52;16.60;38.30
43884;DHT22;29544;52.018;5.810;2023-03-01T17:12:18;16.50;38.20
43884;DHT22;29544;52.018;5.810;2023-03-01T17:14:43;16.50;38.30
43884;DHT22;29544;52.018;5.810;2023-03-01T17:17:10;16.50;38.40
43884;DHT22;29544;52.018;5.810;2023-03-01T17:19:36;16.50;38.40
43884;DHT22;29544;52.018;5.810;2023-03-01T17:22:06;16.40;38.40
43884;DHT22;29544;52.018;5.810;2023-03-01T17:24:33;16.40;38.40
43884;DHT22;29544;52.018;5.810;2023-03-01T17:26:59;16.40;38.50
43884;DHT22;29544;52.018;5.810;2023-03-01T17:29:24;16.30;38.50